sensor_id;sensor_type;location;lat;lon;timestamp;pressure;altitude;pressure_sealevel;temperature;humidity
60642;BME280;46837;52.446;-1.930;2024-01-07T00:00:09;100980.02;;;4.31;84.70
60642;BME280;46837;52.446;-1.930;2024-01-07T00:01:10;100981.51;;;4.28;84.57
60642;BME280;46837;52.446;-1.930;2024-01-07T00:02:09;100985.11;;;4.29;84.73
60642;BME280;46837;52.446;-1.930;2024-01-07T00:03:09;100979.96;;;4.29;84.65
60642;BME280;46837;52.446;-1.930;2024-01-07T00:04:09;100988.68;;;4.29;84.64
60642;BME280;46837;52.446;-1.930;2024-01-07T00:05:09;100989.88;;;4.26;84.52
60642;BME280;46837;52.446;-1.930;2024-01-07T00:06:09;100990.36;;;4.27;84.59
60642;BME280;46837;52.446;-1.930;2024-01-07T00:07:09;100990.11;;;4.23;84.41
60642;BME280;46837;52.446;-1.930;2024-01-07T00:08:09;100990.80;;;4.22;84.56
60642;BME280;46837;52.446;-1.930;2024-01-07T00:09:10;100990.06;;;4.18;84.55
60642;BME280;46837;52.446;-1.930;2024-01-07T00:10:09;100992.70;;;4.19;84.75
60642;BME280;46837;52.446;-1.930;2024-01-07T00:11:09;100994.67;;;4.21;84.70
60642;BME280;46837;52.446;-1.930;2024-01-07T00:12:09;100992.85;;;4.21;84.68
60642;BME280;46837;52.446;-1.930;2024-01-07T00:13:09;100993.24;;;4.17;84.57
60642;BME280;46837;52.446;-1.930;2024-01-07T00:14:09;100993.12;;;4.17;84.66
60642;BME280;46837;52.446;-1.930;2024-01-07T00:15:09;100995.62;;;4.19;84.79
60642;BME280;46837;52.446;-1.930;2024-01-07T00:16:09;100993.12;;;4.17;84.68
60642;BME280;46837;52.446;-1.930;2024-01-07T00:17:09;100997.28;;;4.18;84.78
60642;BME280;46837;52.446;-1.930;2024-01-07T00:18:09;100996.14;;;4.18;84.69
60642;BME280;46837;52.446;-1.930;2024-01-07T00:19:09;100992.47;;;4.16;84.66
60642;BME280;46837;52.446;-1.930;2024-01-07T00:20:09;100995.55;;;4.16;84.75
60642;BME280;46837;52.446;-1.930;2024-01-07T00:21:09;100996.73;;;4.16;84.76
60642;BME280;46837;52.446;-1.930;2024-01-07T00:22:09;100997.38;;;4.17;84.74
60642;BME280;46837;52.446;-1.930;2024-01-07T00:23:09;100999.25;;;4.16;84.66
60642;BME280;46837;52.446;-1.930;2024-01-07T00:24:09;100999.41;;;4.17;84.75
60642;BME280;46837;52.446;-1.930;2024-01-07T00:25:09;100997.99;;;4.15;84.63
60642;BME280;46837;52.446;-1.930;2024-01-07T00:26:09;101000.65;;;4.18;84.81
60642;BME280;46837;52.446;-1.930;2024-01-07T00:27:09;101002.07;;;4.19;84.75
60642;BME280;46837;52.446;-1.930;2024-01-07T00:28:09;101007.98;;;4.19;84.67
60642;BME280;46837;52.446;-1.930;2024-01-07T00:29:09;101005.74;;;4.16;84.60
60642;BME280;46837;52.446;-1.930;2024-01-07T00:30:09;101005.94;;;4.16;84.72
60642;BME280;46837;52.446;-1.930;2024-01-07T00:31:10;101005.80;;;4.19;84.90
60642;BME280;46837;52.446;-1.930;2024-01-07T00:32:09;101006.61;;;4.18;84.69
60642;BME280;46837;52.446;-1.930;2024-01-07T00:33:09;101007.22;;;4.19;84.70
60642;BME280;46837;52.446;-1.930;2024-01-07T00:34:09;101008.67;;;4.20;84.73
60642;BME280;46837;52.446;-1.930;2024-01-07T00:35:09;101007.46;;;4.19;84.66
60642;BME280;46837;52.446;-1.930;2024-01-07T00:36:09;101010.55;;;4.19;84.69
60642;BME280;46837;52.446;-1.930;2024-01-07T00:37:09;101011.03;;;4.20;84.74
60642;BME280;46837;52.446;-1.930;2024-01-07T00:38:09;101016.26;;;4.19;84.63
60642;BME280;46837;52.446;-1.930;2024-01-07T00:39:09;101013.97;;;4.17;84.61
60642;BME280;46837;52.446;-1.930;2024-01-07T00:40:09;101016.67;;;4.19;84.71
60642;BME280;46837;52.446;-1.930;2024-01-07T00:41:09;101017.72;;;4.21;84.65
60642;BME280;46837;52.446;-1.930;2024-01-07T00:42:09;101020.22;;;4.22;84.65
60642;BME280;46837;52.446;-1.930;2024-01-07T00:43:09;101020.24;;;4.19;84.44
60642;BME280;46837;52.446;-1.930;2024-01-07T00:44:09;101019.19;;;4.18;84.54
60642;BME280;46837;52.446;-1.930;2024-01-07T00:45:09;101024.39;;;4.17;84.54
60642;BME280;46837;52.446;-1.930;2024-01-07T00:46:09;101021.64;;;4.17;84.62
60642;BME280;46837;52.446;-1.930;2024-01-07T00:47:09;101025.43;;;4.21;84.70
60642;BME280;46837;52.446;-1.930;2024-01-07T00:48:09;101024.39;;;4.23;84.62
60642;BME280;46837;52.446;-1.930;2024-01-07T00:49:09;101023.95;;;4.23;84.50
60642;BME280;46837;52.446;-1.930;2024-01-07T00:50:09;101026.97;;;4.26;84.51
60642;BME280;46837;52.446;-1.930;2024-01-07T00:51:09;101026.62;;;4.23;84.29
60642;BME280;46837;52.446;-1.930;2024-01-07T00:52:09;101026.27;;;4.22;84.36
60642;BME280;46837;52.446;-1.930;2024-01-07T00:53:09;101029.36;;;4.21;84.38
60642;BME280;46837;52.446;-1.930;2024-01-07T00:54:09;101028.85;;;4.24;84.51
60642;BME280;46837;52.446;-1.930;2024-01-07T00:55:09;101030.64;;;4.24;84.32
60642;BME280;46837;52.446;-1.930;2024-01-07T00:56:09;101031.50;;;4.22;84.23
60642;BME280;46837;52.446;-1.930;2024-01-07T00:57:09;101030.66;;;4.25;84.41
60642;BME280;46837;52.446;-1.930;2024-01-07T00:58:09;101031.23;;;4.27;84.37
60642;BME280;46837;52.446;-1.930;2024-01-07T00:59:09;101033.29;;;4.28;84.32
60642;BME280;46837;52.446;-1.930;2024-01-07T01:00:09;101031.63;;;4.26;84.21
60642;BME280;46837;52.446;-1.930;2024-01-07T01:01:09;101035.73;;;4.26;84.24
60642;BME280;46837;52.446;-1.930;2024-01-07T01:02:09;101033.58;;;4.27;84.37
60642;BME280;46837;52.446;-1.930;2024-01-07T01:03:09;101034.24;;;4.25;84.29
60642;BME280;46837;52.446;-1.930;2024-01-07T01:04:09;101032.97;;;4.27;84.34
60642;BME280;46837;52.446;-1.930;2024-01-07T01:05:09;101036.34;;;4.27;84.36
60642;BME280;46837;52.446;-1.930;2024-01-07T01:06:09;101034.19;;;4.26;84.26
60642;BME280;46837;52.446;-1.930;2024-01-07T01:07:09;101036.10;;;4.27;84.21
60642;BME280;46837;52.446;-1.930;2024-01-07T01:08:09;101037.19;;;4.27;84.26
60642;BME280;46837;52.446;-1.930;2024-01-07T01:09:09;101032.40;;;4.27;84.25
60642;BME280;46837;52.446;-1.930;2024-01-07T01:10:09;101030.65;;;4.27;84.20
60642;BME280;46837;52.446;-1.930;2024-01-07T01:11:10;101033.04;;;4.29;84.27
60642;BME280;46837;52.446;-1.930;2024-01-07T01:12:09;101037.74;;;4.29;84.20
60642;BME280;46837;52.446;-1.930;2024-01-07T01:13:09;101040.05;;;4.29;84.35
60642;BME280;46837;52.446;-1.930;2024-01-07T01:14:09;101039.89;;;4.29;84.30
60642;BME280;46837;52.446;-1.930;2024-01-07T01:15:09;101043.44;;;4.27;84.27
60642;BME280;46837;52.446;-1.930;2024-01-07T01:16:09;101038.78;;;4.26;84.31
60642;BME280;46837;52.446;-1.930;2024-01-07T01:17:09;101040.13;;;4.25;84.31
60642;BME280;46837;52.446;-1.930;2024-01-07T01:18:09;101043.84;;;4.28;84.37
60642;BME280;46837;52.446;-1.930;2024-01-07T01:19:09;101042.20;;;4.29;84.29
60642;BME280;46837;52.446;-1.930;2024-01-07T01:20:09;101038.02;;;4.30;84.25
60642;BME280;46837;52.446;-1.930;2024-01-07T01:21:09;101040.66;;;4.30;84.21
60642;BME280;46837;52.446;-1.930;2024-01-07T01:22:09;101039.50;;;4.33;84.36
60642;BME280;46837;52.446;-1.930;2024-01-07T01:23:09;101037.02;;;4.34;84.24
60642;BME280;46837;52.446;-1.930;2024-01-07T01:24:09;101038.39;;;4.35;84.21
60642;BME280;46837;52.446;-1.930;2024-01-07T01:25:09;101039.64;;;4.35;84.20
60642;BME280;46837;52.446;-1.930;2024-01-07T01:26:09;101035.50;;;4.37;84.25
60642;BME280;46837;52.446;-1.930;2024-01-07T01:27:09;101041.21;;;4.37;84.15
60642;BME280;46837;52.446;-1.930;2024-01-07T01:28:09;101039.50;;;4.38;84.23
60642;BME280;46837;52.446;-1.930;2024-01-07T01:29:09;101040.21;;;4.42;84.28
60642;BME280;46837;52.446;-1.930;2024-01-07T01:30:09;101040.97;;;4.42;84.10
60642;BME280;46837;52.446;-1.930;2024-01-07T01:31:09;101045.45;;;4.42;84.03
60642;BME280;46837;52.446;-1.930;2024-01-07T01:32:09;101047.69;;;4.39;84.06
60642;BME280;46837;52.446;-1.930;2024-01-07T01:33:09;101049.95;;;4.41;84.17
60642;BME280;46837;52.446;-1.930;2024-01-07T01:34:09;101050.12;;;4.40;84.01
60642;BME280;46837;52.446;-1.930;2024-01-07T01:35:09;101046.39;;;4.39;84.04
60642;BME280;46837;52.446;-1.930;2024-01-07T01:36:09;101049.34;;;4.42;84.11
60642;BME280;46837;52.446;-1.930;2024-01-07T01:37:09;101048.15;;;4.43;84.00
60642;BME280;46837;52.446;-1.930;2024-01-07T01:38:09;101048.94;;;4.41;83.90
60642;BME280;46837;52.446;-1.930;2024-01-07T01:39:09;101045.25;;;4.45;84.07
60642;BME280;46837;52.446;-1.930;2024-01-07T01:40:09;101047.95;;;4.43;83.78
60642;BME280;46837;52.446;-1.930;2024-01-07T01:41:09;101050.01;;;4.44;83.87
60642;BME280;46837;52.446;-1.930;2024-01-07T01:42:09;101055.34;;;4.43;83.85
60642;BME280;46837;52.446;-1.930;2024-01-07T01:43:09;101054.12;;;4.42;83.82
60642;BME280;46837;52.446;-1.930;2024-01-07T01:44:09;101054.04;;;4.43;83.91
60642;BME280;46837;52.446;-1.930;2024-01-07T01:45:09;101052.88;;;4.46;84.04
60642;BME280;46837;52.446;-1.930;2024-01-07T01:46:09;101054.47;;;4.50;84.04
60642;BME280;46837;52.446;-1.930;2024-01-07T01:47:09;101056.38;;;4.51;83.85
60642;BME280;46837;52.446;-1.930;2024-01-07T01:48:09;101057.81;;;4.54;83.86
60642;BME280;46837;52.446;-1.930;2024-01-07T01:49:09;101061.25;;;4.56;83.74
60642;BME280;46837;52.446;-1.930;2024-01-07T01:50:09;101059.79;;;4.55;83.60
60642;BME280;46837;52.446;-1.930;2024-01-07T01:51:09;101060.12;;;4.55;83.64
60642;BME280;46837;52.446;-1.930;2024-01-07T01:52:09;101062.43;;;4.56;83.63
60642;BME280;46837;52.446;-1.930;2024-01-07T01:53:09;101064.43;;;4.53;83.50
60642;BME280;46837;52.446;-1.930;2024-01-07T01:54:09;101067.71;;;4.55;83.69
60642;BME280;46837;52.446;-1.930;2024-01-07T01:55:09;101068.27;;;4.56;83.63
60642;BME280;46837;52.446;-1.930;2024-01-07T01:56:09;101071.96;;;4.56;83.52
60642;BME280;46837;52.446;-1.930;2024-01-07T01:57:09;101075.00;;;4.58;83.54
60642;BME280;46837;52.446;-1.930;2024-01-07T01:58:09;101076.50;;;4.57;83.52
60642;BME280;46837;52.446;-1.930;2024-01-07T01:59:09;101075.47;;;4.60;83.60
60642;BME280;46837;52.446;-1.930;2024-01-07T02:00:09;101077.64;;;4.57;83.39
60642;BME280;46837;52.446;-1.930;2024-01-07T02:01:09;101077.65;;;4.61;83.52
60642;BME280;46837;52.446;-1.930;2024-01-07T02:02:09;101076.04;;;4.64;83.51
60642;BME280;46837;52.446;-1.930;2024-01-07T02:03:09;101082.53;;;4.65;83.34
60642;BME280;46837;52.446;-1.930;2024-01-07T02:04:09;101085.13;;;4.65;83.24
60642;BME280;46837;52.446;-1.930;2024-01-07T02:05:09;101084.03;;;4.66;83.28
60642;BME280;46837;52.446;-1.930;2024-01-07T02:06:09;101083.89;;;4.67;83.23
60642;BME280;46837;52.446;-1.930;2024-01-07T02:07:09;101085.15;;;4.68;83.16
60642;BME280;46837;52.446;-1.930;2024-01-07T02:08:09;101085.87;;;4.69;83.23
60642;BME280;46837;52.446;-1.930;2024-01-07T02:09:09;101085.67;;;4.69;83.24
60642;BME280;46837;52.446;-1.930;2024-01-07T02:10:09;101085.65;;;4.66;83.23
60642;BME280;46837;52.446;-1.930;2024-01-07T02:11:16;101089.46;;;4.67;83.29
60642;BME280;46837;52.446;-1.930;2024-01-07T02:12:09;101093.05;;;4.66;83.27
60642;BME280;46837;52.446;-1.930;2024-01-07T02:13:09;101092.95;;;4.63;83.17
60642;BME280;46837;52.446;-1.930;2024-01-07T02:14:09;101091.75;;;4.64;83.33
60642;BME280;46837;52.446;-1.930;2024-01-07T02:15:09;101096.34;;;4.59;83.26
60642;BME280;46837;52.446;-1.930;2024-01-07T02:16:09;101097.00;;;4.58;83.36
60642;BME280;46837;52.446;-1.930;2024-01-07T02:17:09;101098.59;;;4.56;83.39
60642;BME280;46837;52.446;-1.930;2024-01-07T02:18:09;101098.20;;;4.55;83.42
60642;BME280;46837;52.446;-1.930;2024-01-07T02:19:09;101098.04;;;4.54;83.49
60642;BME280;46837;52.446;-1.930;2024-01-07T02:20:09;101098.80;;;4.55;83.47
60642;BME280;46837;52.446;-1.930;2024-01-07T02:21:09;101100.82;;;4.51;83.41
60642;BME280;46837;52.446;-1.930;2024-01-07T02:22:09;101104.54;;;4.53;83.65
60642;BME280;46837;52.446;-1.930;2024-01-07T02:23:09;101102.02;;;4.53;83.60
60642;BME280;46837;52.446;-1.930;2024-01-07T02:24:16;101104.07;;;4.51;83.70
60642;BME280;46837;52.446;-1.930;2024-01-07T02:25:09;101107.56;;;4.51;83.79
60642;BME280;46837;52.446;-1.930;2024-01-07T02:26:09;101102.75;;;4.53;83.93
60642;BME280;46837;52.446;-1.930;2024-01-07T02:27:09;101105.92;;;4.53;83.80
60642;BME280;46837;52.446;-1.930;2024-01-07T02:28:09;101107.74;;;4.55;83.86
60642;BME280;46837;52.446;-1.930;2024-01-07T02:29:09;101108.76;;;4.54;83.77
60642;BME280;46837;52.446;-1.930;2024-01-07T02:30:09;101106.01;;;4.52;83.71
60642;BME280;46837;52.446;-1.930;2024-01-07T02:31:09;101104.64;;;4.51;83.79
60642;BME280;46837;52.446;-1.930;2024-01-07T02:32:09;101111.14;;;4.50;83.82
60642;BME280;46837;52.446;-1.930;2024-01-07T02:33:09;101108.08;;;4.52;83.95
60642;BME280;46837;52.446;-1.930;2024-01-07T02:34:10;101111.38;;;4.50;83.79
60642;BME280;46837;52.446;-1.930;2024-01-07T02:35:09;101112.04;;;4.49;83.90
60642;BME280;46837;52.446;-1.930;2024-01-07T02:36:09;101110.59;;;4.47;83.95
60642;BME280;46837;52.446;-1.930;2024-01-07T02:37:09;101111.32;;;4.47;84.06
60642;BME280;46837;52.446;-1.930;2024-01-07T02:38:09;101112.23;;;4.46;84.06
60642;BME280;46837;52.446;-1.930;2024-01-07T02:39:09;101107.45;;;4.43;84.11
60642;BME280;46837;52.446;-1.930;2024-01-07T02:40:09;101112.29;;;4.42;84.21
60642;BME280;46837;52.446;-1.930;2024-01-07T02:41:09;101110.33;;;4.43;84.28
60642;BME280;46837;52.446;-1.930;2024-01-07T02:42:09;101110.78;;;4.42;84.28
60642;BME280;46837;52.446;-1.930;2024-01-07T02:43:09;101110.67;;;4.42;84.30
60642;BME280;46837;52.446;-1.930;2024-01-07T02:44:09;101115.23;;;4.39;84.24
60642;BME280;46837;52.446;-1.930;2024-01-07T02:45:09;101115.91;;;4.40;84.35
60642;BME280;46837;52.446;-1.930;2024-01-07T02:46:09;101117.39;;;4.36;84.39
60642;BME280;46837;52.446;-1.930;2024-01-07T02:47:09;101117.51;;;4.38;84.64
60642;BME280;46837;52.446;-1.930;2024-01-07T02:48:09;101118.66;;;4.42;84.64
60642;BME280;46837;52.446;-1.930;2024-01-07T02:49:09;101119.55;;;4.42;84.50
60642;BME280;46837;52.446;-1.930;2024-01-07T02:50:09;101117.84;;;4.43;84.53
60642;BME280;46837;52.446;-1.930;2024-01-07T02:51:09;101120.43;;;4.44;84.50
60642;BME280;46837;52.446;-1.930;2024-01-07T02:52:09;101119.30;;;4.44;84.59
60642;BME280;46837;52.446;-1.930;2024-01-07T02:53:09;101120.46;;;4.46;84.56
60642;BME280;46837;52.446;-1.930;2024-01-07T02:54:09;101117.30;;;4.45;84.47
60642;BME280;46837;52.446;-1.930;2024-01-07T02:55:09;101118.37;;;4.44;84.60
60642;BME280;46837;52.446;-1.930;2024-01-07T02:56:09;101118.52;;;4.45;84.68
60642;BME280;46837;52.446;-1.930;2024-01-07T02:57:09;101120.82;;;4.40;84.65
60642;BME280;46837;52.446;-1.930;2024-01-07T02:58:09;101117.80;;;4.42;84.89
60642;BME280;46837;52.446;-1.930;2024-01-07T02:59:09;101117.43;;;4.45;84.83
60642;BME280;46837;52.446;-1.930;2024-01-07T03:00:09;101121.64;;;4.46;84.82
60642;BME280;46837;52.446;-1.930;2024-01-07T03:01:11;101120.58;;;4.46;84.85
60642;BME280;46837;52.446;-1.930;2024-01-07T03:02:09;101123.74;;;4.48;84.89
60642;BME280;46837;52.446;-1.930;2024-01-07T03:03:09;101122.77;;;4.47;84.87
60642;BME280;46837;52.446;-1.930;2024-01-07T03:04:09;101125.29;;;4.47;84.94
60642;BME280;46837;52.446;-1.930;2024-01-07T03:05:09;101124.15;;;4.47;84.94
60642;BME280;46837;52.446;-1.930;2024-01-07T03:06:09;101120.14;;;4.51;85.01
60642;BME280;46837;52.446;-1.930;2024-01-07T03:07:09;101123.03;;;4.51;84.82
60642;BME280;46837;52.446;-1.930;2024-01-07T03:08:09;101117.68;;;4.49;84.76
60642;BME280;46837;52.446;-1.930;2024-01-07T03:09:09;101122.22;;;4.50;84.79
60642;BME280;46837;52.446;-1.930;2024-01-07T03:10:09;101122.80;;;4.48;84.77
60642;BME280;46837;52.446;-1.930;2024-01-07T03:11:09;101124.39;;;4.48;84.85
60642;BME280;46837;52.446;-1.930;2024-01-07T03:12:09;101125.64;;;4.48;84.82
60642;BME280;46837;52.446;-1.930;2024-01-07T03:13:09;101126.57;;;4.50;84.84
60642;BME280;46837;52.446;-1.930;2024-01-07T03:14:09;101128.94;;;4.47;84.75
60642;BME280;46837;52.446;-1.930;2024-01-07T03:15:09;101132.88;;;4.47;84.89
60642;BME280;46837;52.446;-1.930;2024-01-07T03:16:09;101133.96;;;4.49;84.94
60642;BME280;46837;52.446;-1.930;2024-01-07T03:17:09;101133.44;;;4.48;84.81
60642;BME280;46837;52.446;-1.930;2024-01-07T03:18:09;101133.23;;;4.48;84.91
60642;BME280;46837;52.446;-1.930;2024-01-07T03:19:09;101134.74;;;4.48;84.83
60642;BME280;46837;52.446;-1.930;2024-01-07T03:20:09;101136.92;;;4.50;84.92
60642;BME280;46837;52.446;-1.930;2024-01-07T03:21:16;101132.49;;;4.50;84.91
60642;BME280;46837;52.446;-1.930;2024-01-07T03:22:10;101132.52;;;4.46;84.87
60642;BME280;46837;52.446;-1.930;2024-01-07T03:23:09;101135.23;;;4.46;85.04
60642;BME280;46837;52.446;-1.930;2024-01-07T03:24:09;101134.82;;;4.48;85.08
60642;BME280;46837;52.446;-1.930;2024-01-07T03:25:09;101134.34;;;4.48;84.99
60642;BME280;46837;52.446;-1.930;2024-01-07T03:26:09;101135.75;;;4.48;85.01
60642;BME280;46837;52.446;-1.930;2024-01-07T03:27:09;101136.96;;;4.50;85.09
60642;BME280;46837;52.446;-1.930;2024-01-07T03:28:09;101136.89;;;4.47;84.97
60642;BME280;46837;52.446;-1.930;2024-01-07T03:29:09;101136.61;;;4.47;85.09
60642;BME280;46837;52.446;-1.930;2024-01-07T03:30:09;101139.37;;;4.48;85.12
60642;BME280;46837;52.446;-1.930;2024-01-07T03:31:12;101143.88;;;4.48;85.12
60642;BME280;46837;52.446;-1.930;2024-01-07T03:32:09;101141.84;;;4.48;85.05
60642;BME280;46837;52.446;-1.930;2024-01-07T03:33:09;101144.44;;;4.47;85.02
60642;BME280;46837;52.446;-1.930;2024-01-07T03:34:09;101144.71;;;4.50;85.13
60642;BME280;46837;52.446;-1.930;2024-01-07T03:35:09;101146.25;;;4.50;85.08
60642;BME280;46837;52.446;-1.930;2024-01-07T03:36:12;101145.59;;;4.52;85.08
60642;BME280;46837;52.446;-1.930;2024-01-07T03:37:09;101148.64;;;4.52;84.84
60642;BME280;46837;52.446;-1.930;2024-01-07T03:38:09;101147.44;;;4.49;84.92
60642;BME280;46837;52.446;-1.930;2024-01-07T03:39:09;101149.17;;;4.51;85.10
60642;BME280;46837;52.446;-1.930;2024-01-07T03:40:13;101149.21;;;4.51;85.05
60642;BME280;46837;52.446;-1.930;2024-01-07T03:41:09;101151.85;;;4.50;84.98
60642;BME280;46837;52.446;-1.930;2024-01-07T03:42:13;101153.56;;;4.43;84.81
60642;BME280;46837;52.446;-1.930;2024-01-07T03:43:09;101158.69;;;4.40;85.08
60642;BME280;46837;52.446;-1.930;2024-01-07T03:44:09;101156.13;;;4.41;85.22
60642;BME280;46837;52.446;-1.930;2024-01-07T03:45:09;101158.25;;;4.40;85.17
60642;BME280;46837;52.446;-1.930;2024-01-07T03:46:09;101158.71;;;4.38;85.13
60642;BME280;46837;52.446;-1.930;2024-01-07T03:47:09;101159.44;;;4.37;85.26
60642;BME280;46837;52.446;-1.930;2024-01-07T03:48:09;101159.48;;;4.36;85.16
60642;BME280;46837;52.446;-1.930;2024-01-07T03:49:09;101161.19;;;4.36;85.16
60642;BME280;46837;52.446;-1.930;2024-01-07T03:50:09;101160.98;;;4.36;85.22
60642;BME280;46837;52.446;-1.930;2024-01-07T03:51:09;101158.22;;;4.29;85.07
60642;BME280;46837;52.446;-1.930;2024-01-07T03:52:09;101158.76;;;4.28;85.26
60642;BME280;46837;52.446;-1.930;2024-01-07T03:53:09;101161.59;;;4.29;85.38
60642;BME280;46837;52.446;-1.930;2024-01-07T03:54:09;101165.25;;;4.28;85.40
60642;BME280;46837;52.446;-1.930;2024-01-07T03:55:09;101164.52;;;4.27;85.40
60642;BME280;46837;52.446;-1.930;2024-01-07T03:56:09;101164.12;;;4.26;85.38
60642;BME280;46837;52.446;-1.930;2024-01-07T03:57:09;101163.02;;;4.28;85.50
60642;BME280;46837;52.446;-1.930;2024-01-07T03:58:09;101162.00;;;4.29;85.47
60642;BME280;46837;52.446;-1.930;2024-01-07T03:59:09;101168.68;;;4.32;85.51
60642;BME280;46837;52.446;-1.930;2024-01-07T04:00:09;101165.18;;;4.33;85.48
60642;BME280;46837;52.446;-1.930;2024-01-07T04:01:09;101167.68;;;4.36;85.45
60642;BME280;46837;52.446;-1.930;2024-01-07T04:02:09;101169.59;;;4.37;85.37
60642;BME280;46837;52.446;-1.930;2024-01-07T04:03:09;101171.78;;;4.37;85.33
60642;BME280;46837;52.446;-1.930;2024-01-07T04:04:09;101171.69;;;4.38;85.26
60642;BME280;46837;52.446;-1.930;2024-01-07T04:05:09;101171.76;;;4.33;85.18
60642;BME280;46837;52.446;-1.930;2024-01-07T04:06:09;101175.08;;;4.34;85.27
60642;BME280;46837;52.446;-1.930;2024-01-07T04:07:09;101177.05;;;4.30;85.21
60642;BME280;46837;52.446;-1.930;2024-01-07T04:08:10;101175.06;;;4.31;85.42
60642;BME280;46837;52.446;-1.930;2024-01-07T04:09:09;101178.41;;;4.32;85.43
60642;BME280;46837;52.446;-1.930;2024-01-07T04:10:09;101174.17;;;4.30;85.27
60642;BME280;46837;52.446;-1.930;2024-01-07T04:11:09;101178.45;;;4.33;85.44
60642;BME280;46837;52.446;-1.930;2024-01-07T04:12:09;101179.71;;;4.33;85.32
60642;BME280;46837;52.446;-1.930;2024-01-07T04:13:09;101180.98;;;4.31;85.27
60642;BME280;46837;52.446;-1.930;2024-01-07T04:14:09;101183.05;;;4.30;85.29
60642;BME280;46837;52.446;-1.930;2024-01-07T04:15:09;101181.70;;;4.32;85.36
60642;BME280;46837;52.446;-1.930;2024-01-07T04:16:16;101185.55;;;4.32;85.26
60642;BME280;46837;52.446;-1.930;2024-01-07T04:17:09;101183.77;;;4.32;85.23
60642;BME280;46837;52.446;-1.930;2024-01-07T04:18:09;101185.72;;;4.32;85.26
60642;BME280;46837;52.446;-1.930;2024-01-07T04:19:09;101184.60;;;4.30;85.24
60642;BME280;46837;52.446;-1.930;2024-01-07T04:20:12;101182.28;;;4.31;85.33
60642;BME280;46837;52.446;-1.930;2024-01-07T04:21:10;101188.20;;;4.32;85.25
60642;BME280;46837;52.446;-1.930;2024-01-07T04:22:09;101186.62;;;4.30;85.21
60642;BME280;46837;52.446;-1.930;2024-01-07T04:23:09;101188.68;;;4.34;85.35
60642;BME280;46837;52.446;-1.930;2024-01-07T04:24:09;101190.57;;;4.37;85.29
60642;BME280;46837;52.446;-1.930;2024-01-07T04:25:11;101193.22;;;4.35;85.15
60642;BME280;46837;52.446;-1.930;2024-01-07T04:26:09;101192.70;;;4.32;84.93
60642;BME280;46837;52.446;-1.930;2024-01-07T04:27:09;101189.66;;;4.32;85.12
60642;BME280;46837;52.446;-1.930;2024-01-07T04:28:09;101189.26;;;4.31;85.10
60642;BME280;46837;52.446;-1.930;2024-01-07T04:29:09;101190.59;;;4.32;85.15
60642;BME280;46837;52.446;-1.930;2024-01-07T04:30:09;101185.80;;;4.32;85.04
60642;BME280;46837;52.446;-1.930;2024-01-07T04:31:09;101190.83;;;4.32;85.08
60642;BME280;46837;52.446;-1.930;2024-01-07T04:32:09;101188.86;;;4.29;84.98
60642;BME280;46837;52.446;-1.930;2024-01-07T04:33:09;101190.59;;;4.25;84.98
60642;BME280;46837;52.446;-1.930;2024-01-07T04:34:09;101195.82;;;4.24;85.12
60642;BME280;46837;52.446;-1.930;2024-01-07T04:35:09;101196.38;;;4.25;85.25
60642;BME280;46837;52.446;-1.930;2024-01-07T04:36:09;101191.71;;;4.25;85.18
60642;BME280;46837;52.446;-1.930;2024-01-07T04:37:09;101191.97;;;4.24;85.12
60642;BME280;46837;52.446;-1.930;2024-01-07T04:38:09;101195.13;;;4.25;85.21
60642;BME280;46837;52.446;-1.930;2024-01-07T04:39:09;101195.55;;;4.22;85.17
60642;BME280;46837;52.446;-1.930;2024-01-07T04:40:09;101195.50;;;4.24;85.24
60642;BME280;46837;52.446;-1.930;2024-01-07T04:41:10;101196.55;;;4.24;85.13
60642;BME280;46837;52.446;-1.930;2024-01-07T04:42:09;101196.80;;;4.23;85.16
60642;BME280;46837;52.446;-1.930;2024-01-07T04:43:09;101197.37;;;4.22;85.06
60642;BME280;46837;52.446;-1.930;2024-01-07T04:44:09;101196.77;;;4.22;85.13
60642;BME280;46837;52.446;-1.930;2024-01-07T04:45:09;101196.72;;;4.23;85.10
60642;BME280;46837;52.446;-1.930;2024-01-07T04:46:09;101197.88;;;4.17;84.95
60642;BME280;46837;52.446;-1.930;2024-01-07T04:48:09;101200.95;;;4.21;85.15
60642;BME280;46837;52.446;-1.930;2024-01-07T04:49:09;101204.57;;;4.18;85.05
60642;BME280;46837;52.446;-1.930;2024-01-07T04:50:09;101203.27;;;4.18;85.10
60642;BME280;46837;52.446;-1.930;2024-01-07T04:51:09;101203.07;;;4.17;85.02
60642;BME280;46837;52.446;-1.930;2024-01-07T04:52:09;101203.19;;;4.20;85.05
60642;BME280;46837;52.446;-1.930;2024-01-07T04:53:09;101202.95;;;4.18;84.91
60642;BME280;46837;52.446;-1.930;2024-01-07T04:54:09;101202.82;;;4.18;84.88
60642;BME280;46837;52.446;-1.930;2024-01-07T04:55:09;101203.28;;;4.16;84.81
60642;BME280;46837;52.446;-1.930;2024-01-07T04:56:09;101206.65;;;4.16;84.91
60642;BME280;46837;52.446;-1.930;2024-01-07T04:57:09;101203.03;;;4.17;84.95
60642;BME280;46837;52.446;-1.930;2024-01-07T04:58:09;101199.94;;;4.20;84.95
60642;BME280;46837;52.446;-1.930;2024-01-07T04:59:09;101206.06;;;4.21;84.93
60642;BME280;46837;52.446;-1.930;2024-01-07T05:00:09;101206.85;;;4.17;84.73
60642;BME280;46837;52.446;-1.930;2024-01-07T05:01:09;101207.30;;;4.14;84.78
60642;BME280;46837;52.446;-1.930;2024-01-07T05:02:09;101209.11;;;4.18;84.96
60642;BME280;46837;52.446;-1.930;2024-01-07T05:03:09;101208.98;;;4.21;84.88
60642;BME280;46837;52.446;-1.930;2024-01-07T05:04:09;101211.08;;;4.24;84.83
60642;BME280;46837;52.446;-1.930;2024-01-07T05:05:10;101216.43;;;4.26;84.69
60642;BME280;46837;52.446;-1.930;2024-01-07T05:06:11;101219.59;;;4.26;84.62
60642;BME280;46837;52.446;-1.930;2024-01-07T05:07:09;101214.40;;;4.25;84.44
60642;BME280;46837;52.446;-1.930;2024-01-07T05:08:09;101219.19;;;4.26;84.25
60642;BME280;46837;52.446;-1.930;2024-01-07T05:09:09;101214.76;;;4.28;84.30
60642;BME280;46837;52.446;-1.930;2024-01-07T05:10:09;101217.93;;;4.25;84.24
60642;BME280;46837;52.446;-1.930;2024-01-07T05:11:09;101219.97;;;4.24;84.16
60642;BME280;46837;52.446;-1.930;2024-01-07T05:12:09;101219.48;;;4.25;84.32
60642;BME280;46837;52.446;-1.930;2024-01-07T05:13:09;101223.49;;;4.25;84.30
60642;BME280;46837;52.446;-1.930;2024-01-07T05:14:09;101221.55;;;4.24;84.31